sensor_id;sensor_type;location;lat;lon;timestamp;pressure;altitude;pressure_sealevel;temperature;humidity
69171;BME280;56279;47.902;12.308;2023-04-23T00:01:01;94810.16;;;12.88;65.44
69171;BME280;56279;47.902;12.308;2023-04-23T00:03:06;94810.66;;;12.90;65.20
69171;BME280;56279;47.902;12.308;2023-04-23T00:05:11;94810.34;;;12.91;65.12
69171;BME280;56279;47.902;12.308;2023-04-23T00:07:13;94807.38;;;12.93;64.99
69171;BME280;56279;47.902;12.308;2023-04-23T00:09:14;94806.78;;;12.96;64.94
69171;BME280;56279;47.902;12.308;2023-04-23T00:11:17;94805.38;;;12.98;64.69
69171;BME280;56279;47.902;12.308;2023-04-23T00:13:18;94802.13;;;13.01;64.73
69171;BME280;56279;47.902;12.308;2023-04-23T00:15:20;94804.19;;;13.04;64.96
69171;BME280;56279;47.902;12.308;2023-04-23T00:17:22;94811.84;;;13.06;64.99
69171;BME280;56279;47.902;12.308;2023-04-23T00:19:23;94811.25;;;13.09;64.87
69171;BME280;56279;47.902;12.308;2023-04-23T00:21:24;94803.78;;;13.11;64.69
69171;BME280;56279;47.902;12.308;2023-04-23T00:23:27;94807.69;;;13.13;64.52
69171;BME280;56279;47.902;12.308;2023-04-23T00:25:29;94808.94;;;13.16;64.89
69171;BME280;56279;47.902;12.308;2023-04-23T00:27:30;94803.00;;;13.19;64.72
69171;BME280;56279;47.902;12.308;2023-04-23T00:29:31;94802.09;;;13.24;64.35
69171;BME280;56279;47.902;12.308;2023-04-23T00:31:37;94801.50;;;13.27;64.38
69171;BME280;56279;47.902;12.308;2023-04-23T00:33:38;94801.69;;;13.30;64.27
69171;BME280;56279;47.902;12.308;2023-04-23T00:35:41;94802.16;;;13.32;64.00
69171;BME280;56279;47.902;12.308;2023-04-23T00:37:45;94811.03;;;13.36;64.13
69171;BME280;56279;47.902;12.308;2023-04-23T00:39:47;94805.16;;;13.39;63.96
69171;BME280;56279;47.902;12.308;2023-04-23T00:41:49;94802.97;;;13.41;63.90
69171;BME280;56279;47.902;12.308;2023-04-23T00:43:54;94805.28;;;13.43;63.89
69171;BME280;56279;47.902;12.308;2023-04-23T00:45:57;94800.47;;;13.45;63.83
69171;BME280;56279;47.902;12.308;2023-04-23T00:47:58;94799.38;;;13.46;63.88
69171;BME280;56279;47.902;12.308;2023-04-23T00:49:59;94799.38;;;13.46;64.20
69171;BME280;56279;47.902;12.308;2023-04-23T00:52:02;94796.28;;;13.44;64.20
69171;BME280;56279;47.902;12.308;2023-04-23T00:54:03;94793.16;;;13.42;64.32
69171;BME280;56279;47.902;12.308;2023-04-23T00:56:05;94791.56;;;13.41;64.55
69171;BME280;56279;47.902;12.308;2023-04-23T00:58:08;94794.53;;;13.39;64.65
69171;BME280;56279;47.902;12.308;2023-04-23T01:00:10;94790.63;;;13.37;64.87
69171;BME280;56279;47.902;12.308;2023-04-23T01:02:13;94792.03;;;13.34;64.55
69171;BME280;56279;47.902;12.308;2023-04-23T01:04:16;94790.44;;;13.33;64.91
69171;BME280;56279;47.902;12.308;2023-04-23T01:06:18;94794.50;;;13.31;65.36
69171;BME280;56279;47.902;12.308;2023-04-23T01:08:22;94798.53;;;13.28;65.44
69171;BME280;56279;47.902;12.308;2023-04-23T01:10:25;94791.97;;;13.26;65.42
69171;BME280;56279;47.902;12.308;2023-04-23T01:12:27;94791.34;;;13.20;65.49
69171;BME280;56279;47.902;12.308;2023-04-23T01:14:28;94787.44;;;13.18;65.81
69171;BME280;56279;47.902;12.308;2023-04-23T01:16:29;94783.53;;;13.15;66.06
69171;BME280;56279;47.902;12.308;2023-04-23T01:18:31;94777.28;;;13.11;66.34
69171;BME280;56279;47.902;12.308;2023-04-23T01:20:33;94779.75;;;13.07;66.69
69171;BME280;56279;47.902;12.308;2023-04-23T01:22:36;94777.69;;;13.04;66.76
69171;BME280;56279;47.902;12.308;2023-04-23T01:24:38;94783.28;;;13.03;66.95
69171;BME280;56279;47.902;12.308;2023-04-23T01:26:41;94779.09;;;13.02;67.01
69171;BME280;56279;47.902;12.308;2023-04-23T01:28:42;94782.81;;;13.01;67.07
69171;BME280;56279;47.902;12.308;2023-04-23T01:30:44;94788.09;;;13.01;66.93
69171;BME280;56279;47.902;12.308;2023-04-23T01:32:47;94792.63;;;13.00;67.24
69171;BME280;56279;47.902;12.308;2023-04-23T01:34:50;94781.22;;;13.00;67.00
69171;BME280;56279;47.902;12.308;2023-04-23T01:36:54;94786.53;;;13.00;67.14
69171;BME280;56279;47.902;12.308;2023-04-23T01:38:56;94782.81;;;13.01;66.88
69171;BME280;56279;47.902;12.308;2023-04-23T01:40:57;94783.00;;;13.04;66.37
69171;BME280;56279;47.902;12.308;2023-04-23T01:42:59;94780.84;;;13.06;66.54
69171;BME280;56279;47.902;12.308;2023-04-23T01:45:01;94788.16;;;13.09;65.88
69171;BME280;56279;47.902;12.308;2023-04-23T01:47:03;94789.13;;;13.13;65.70
69171;BME280;56279;47.902;12.308;2023-04-23T01:49:06;94788.81;;;13.15;65.55
69171;BME280;56279;47.902;12.308;2023-04-23T01:51:07;94783.69;;;13.18;65.21
69171;BME280;56279;47.902;12.308;2023-04-23T01:53:09;94787.91;;;13.20;65.54
69171;BME280;56279;47.902;12.308;2023-04-23T01:55:10;94780.75;;;13.20;65.31
69171;BME280;56279;47.902;12.308;2023-04-23T01:57:12;94786.84;;;13.21;65.51
69171;BME280;56279;47.902;12.308;2023-04-23T01:59:13;94783.88;;;13.22;65.37
69171;BME280;56279;47.902;12.308;2023-04-23T02:01:14;94786.50;;;13.22;65.44
69171;BME280;56279;47.902;12.308;2023-04-23T02:03:16;94783.56;;;13.24;65.45
69171;BME280;56279;47.902;12.308;2023-04-23T02:05:18;94787.00;;;13.24;65.31
69171;BME280;56279;47.902;12.308;2023-04-23T02:07:20;94787.00;;;13.24;65.64
69171;BME280;56279;47.902;12.308;2023-04-23T02:09:21;94784.34;;;13.24;65.40
69171;BME280;56279;47.902;12.308;2023-04-23T02:11:22;94792.28;;;13.24;65.38
69171;BME280;56279;47.902;12.308;2023-04-23T02:13:24;94792.28;;;13.24;65.46
69171;BME280;56279;47.902;12.308;2023-04-23T02:15:26;94784.34;;;13.24;65.46
69171;BME280;56279;47.902;12.308;2023-04-23T02:17:27;94783.25;;;13.25;65.04
69171;BME280;56279;47.902;12.308;2023-04-23T02:19:29;94779.50;;;13.26;64.79
69171;BME280;56279;47.902;12.308;2023-04-23T02:21:35;94786.06;;;13.29;65.33
69171;BME280;56279;47.902;12.308;2023-04-23T02:23:36;94775.78;;;13.27;65.49
69171;BME280;56279;47.902;12.308;2023-04-23T02:25:39;94776.06;;;13.26;65.44
69171;BME280;56279;47.902;12.308;2023-04-23T02:27:41;94783.56;;;13.24;65.46
69171;BME280;56279;47.902;12.308;2023-04-23T02:29:44;94784.94;;;13.21;65.47
69171;BME280;56279;47.902;12.308;2023-04-23T02:31:46;94788.69;;;13.20;65.39
69171;BME280;56279;47.902;12.308;2023-04-23T02:33:47;94788.22;;;13.18;65.37
69171;BME280;56279;47.902;12.308;2023-04-23T02:35:48;94785.09;;;13.16;65.37
69171;BME280;56279;47.902;12.308;2023-04-23T02:37:49;94783.53;;;13.15;65.57
69171;BME280;56279;47.902;12.308;2023-04-23T02:39:51;94783.84;;;13.13;65.74
69171;BME280;56279;47.902;12.308;2023-04-23T02:41:52;94785.22;;;13.11;65.54
69171;BME280;56279;47.902;12.308;2023-04-23T02:43:53;94784.75;;;13.09;65.55
69171;BME280;56279;47.902;12.308;2023-04-23T02:45:54;94785.34;;;13.06;66.03
69171;BME280;56279;47.902;12.308;2023-04-23T02:47:56;94786.41;;;13.05;66.42
69171;BME280;56279;47.902;12.308;2023-04-23T02:49:58;94785.13;;;13.02;66.19
69171;BME280;56279;47.902;12.308;2023-04-23T02:52:00;94775.34;;;13.03;65.81
69171;BME280;56279;47.902;12.308;2023-04-23T02:54:01;94777.19;;;13.02;66.31
69171;BME280;56279;47.902;12.308;2023-04-23T02:56:04;94774.84;;;13.01;66.34
69171;BME280;56279;47.902;12.308;2023-04-23T02:58:05;94769.09;;;12.99;66.55
69171;BME280;56279;47.902;12.308;2023-04-23T03:00:09;94769.09;;;12.99;66.31
69171;BME280;56279;47.902;12.308;2023-04-23T03:02:15;94769.41;;;12.97;66.73
69171;BME280;56279;47.902;12.308;2023-04-23T03:04:17;94762.84;;;12.95;66.86
69171;BME280;56279;47.902;12.308;2023-04-23T03:06:19;94766.09;;;12.92;66.99
69171;BME280;56279;47.902;12.308;2023-04-23T03:08:20;94768.88;;;12.87;67.11
69171;BME280;56279;47.902;12.308;2023-04-23T03:10:22;94772.13;;;12.84;67.30
69171;BME280;56279;47.902;12.308;2023-04-23T03:12:23;94766.66;;;12.80;67.27
69171;BME280;56279;47.902;12.308;2023-04-23T03:14:25;94773.66;;;12.76;67.55
69171;BME280;56279;47.902;12.308;2023-04-23T03:16:27;94768.47;;;12.71;67.98
69171;BME280;56279;47.902;12.308;2023-04-23T03:18:28;94774.69;;;12.67;68.02
69171;BME280;56279;47.902;12.308;2023-04-23T03:20:31;94770.31;;;12.62;68.08
69171;BME280;56279;47.902;12.308;2023-04-23T03:22:32;94771.97;;;12.58;68.47
69171;BME280;56279;47.902;12.308;2023-04-23T03:24:34;94773.34;;;12.56;68.46
69171;BME280;56279;47.902;12.308;2023-04-23T03:26:35;94775.03;;;12.52;68.69
69171;BME280;56279;47.902;12.308;2023-04-23T03:28:36;94768.22;;;12.51;69.04
69171;BME280;56279;47.902;12.308;2023-04-23T03:30:38;94767.69;;;12.48;69.13
69171;BME280;56279;47.902;12.308;2023-04-23T03:32:39;94758.22;;;12.47;69.36
69171;BME280;56279;47.902;12.308;2023-04-23T03:34:41;94766.47;;;12.46;69.37
69171;BME280;56279;47.902;12.308;2023-04-23T03:36:43;94764.88;;;12.45;69.57
69171;BME280;56279;47.902;12.308;2023-04-23T03:38:45;94763.63;;;12.42;69.57
69171;BME280;56279;47.902;12.308;2023-04-23T03:40:46;94768.13;;;12.42;69.62
69171;BME280;56279;47.902;12.308;2023-04-23T03:42:47;94771.56;;;12.42;69.70
69171;BME280;56279;47.902;12.308;2023-04-23T03:44:52;94772.34;;;12.43;69.60
69171;BME280;56279;47.902;12.308;2023-04-23T03:46:53;94773.13;;;12.43;69.82
69171;BME280;56279;47.902;12.308;2023-04-23T03:48:55;94768.91;;;12.42;69.80
69171;BME280;56279;47.902;12.308;2023-04-23T03:51:01;94767.84;;;12.43;70.00
69171;BME280;56279;47.902;12.308;2023-04-23T03:53:16;94770.50;;;12.43;70.18
69171;BME280;56279;47.902;12.308;2023-04-23T03:55:50;94775.47;;;12.45;70.05
69171;BME280;56279;47.902;12.308;2023-04-23T03:57:51;94768.00;;;12.47;70.11
69171;BME280;56279;47.902;12.308;2023-04-23T03:59:55;94771.91;;;12.49;69.70
69171;BME280;56279;47.902;12.308;2023-04-23T04:02:14;94768.22;;;12.51;69.68
69171;BME280;56279;47.902;12.308;2023-04-23T04:04:16;94775.53;;;12.54;69.56
69171;BME280;56279;47.902;12.308;2023-04-23T04:06:18;94774.94;;;12.57;69.58
69171;BME280;56279;47.902;12.308;2023-04-23T04:08:19;94781.47;;;12.59;69.51
69171;BME280;56279;47.902;12.308;2023-04-23T04:10:21;94782.28;;;12.60;69.49
69171;BME280;56279;47.902;12.308;2023-04-23T04:12:22;94782.75;;;12.62;69.73
69171;BME280;56279;47.902;12.308;2023-04-23T04:14:23;94780.88;;;12.62;69.83
69171;BME280;56279;47.902;12.308;2023-04-23T04:16:24;94777.78;;;12.60;69.79
69171;BME280;56279;47.902;12.308;2023-04-23T04:18:26;94788.34;;;12.60;69.72
69171;BME280;56279;47.902;12.308;2023-04-23T04:20:27;94787.09;;;12.58;69.69
69171;BME280;56279;47.902;12.308;2023-04-23T04:22:28;94782.06;;;12.56;69.78
69171;BME280;56279;47.902;12.308;2023-04-23T04:24:30;94779.75;;;12.55;69.93
69171;BME280;56279;47.902;12.308;2023-04-23T04:26:32;94787.69;;;12.55;70.14
69171;BME280;56279;47.902;12.308;2023-04-23T04:28:34;94789.22;;;12.56;69.99
69171;BME280;56279;47.902;12.308;2023-04-23T04:30:37;94791.59;;;12.57;70.15
69171;BME280;56279;47.902;12.308;2023-04-23T04:32:39;94792.06;;;12.59;70.02
69171;BME280;56279;47.902;12.308;2023-04-23T04:34:42;94794.13;;;12.62;70.26
69171;BME280;56279;47.902;12.308;2023-04-23T04:36:43;94792.75;;;12.65;70.10
69171;BME280;56279;47.902;12.308;2023-04-23T04:38:44;94805.66;;;12.66;70.20
69171;BME280;56279;47.902;12.308;2023-04-23T04:40:46;94803.81;;;12.67;70.08
69171;BME280;56279;47.902;12.308;2023-04-23T04:42:48;94804.88;;;12.66;70.34
69171;BME280;56279;47.902;12.308;2023-04-23T04:44:50;94804.41;;;12.64;70.59
69171;BME280;56279;47.902;12.308;2023-04-23T04:46:51;94800.19;;;12.63;70.86
69171;BME280;56279;47.902;12.308;2023-04-23T04:48:52;94799.41;;;12.62;70.90
69171;BME280;56279;47.902;12.308;2023-04-23T04:50:54;94800.19;;;12.63;71.01
69171;BME280;56279;47.902;12.308;2023-04-23T04:52:55;94806.25;;;12.63;71.28
69171;BME280;56279;47.902;12.308;2023-04-23T04:54:56;94802.22;;;12.66;71.25
69171;BME280;56279;47.902;12.308;2023-04-23T04:56:58;94809.84;;;12.67;71.13
69171;BME280;56279;47.902;12.308;2023-04-23T04:58:59;94812.22;;;12.69;71.16
69171;BME280;56279;47.902;12.308;2023-04-23T05:01:01;94818.00;;;12.71;70.99
69171;BME280;56279;47.902;12.308;2023-04-23T05:03:03;94813.19;;;12.73;71.09
69171;BME280;56279;47.902;12.308;2023-04-23T05:05:05;94823.19;;;12.76;71.55
69171;BME280;56279;47.902;12.308;2023-04-23T05:07:06;94824.44;;;12.78;71.05
69171;BME280;56279;47.902;12.308;2023-04-23T05:09:08;94820.41;;;12.81;71.09
69171;BME280;56279;47.902;12.308;2023-04-23T05:11:10;94827.44;;;12.85;70.68
69171;BME280;56279;47.902;12.308;2023-04-23T05:13:11;94826.06;;;12.88;70.60
69171;BME280;56279;47.902;12.308;2023-04-23T05:15:13;94825.75;;;12.89;70.72
69171;BME280;56279;47.902;12.308;2023-04-23T05:17:14;94830.72;;;12.91;70.50
69171;BME280;56279;47.902;12.308;2023-04-23T05:19:15;94828.09;;;12.91;70.13
69171;BME280;56279;47.902;12.308;2023-04-23T05:21:17;94832.31;;;12.92;70.61
69171;BME280;56279;47.902;12.308;2023-04-23T05:23:19;94834.94;;;12.92;70.88
69171;BME280;56279;47.902;12.308;2023-04-23T05:25:20;94836.50;;;12.93;71.03
69171;BME280;56279;47.902;12.308;2023-04-23T05:27:21;94834.94;;;12.92;70.96
69171;BME280;56279;47.902;12.308;2023-04-23T05:29:23;94841.94;;;12.88;70.84
69171;BME280;56279;47.902;12.308;2023-04-23T05:31:24;94832.25;;;12.83;70.75
69171;BME280;56279;47.902;12.308;2023-04-23T05:33:25;94835.50;;;12.80;71.00
69171;BME280;56279;47.902;12.308;2023-04-23T05:35:27;94842.50;;;12.76;71.04
69171;BME280;56279;47.902;12.308;2023-04-23T05:37:28;94846.22;;;12.75;71.17
69171;BME280;56279;47.902;12.308;2023-04-23T05:39:29;94851.03;;;12.73;71.09
69171;BME280;56279;47.902;12.308;2023-04-23T05:41:30;94849.28;;;12.69;71.34
69171;BME280;56279;47.902;12.308;2023-04-23T05:43:32;94851.16;;;12.68;71.42
69171;BME280;56279;47.902;12.308;2023-04-23T05:45:33;94855.66;;;12.68;71.52
69171;BME280;56279;47.902;12.308;2023-04-23T05:47:35;94853.00;;;12.68;71.63
69171;BME280;56279;47.902;12.308;2023-04-23T05:49:36;94860.94;;;12.68;71.47
69171;BME280;56279;47.902;12.308;2023-04-23T05:51:37;94859.69;;;12.65;71.41
69171;BME280;56279;47.902;12.308;2023-04-23T05:53:38;94867.94;;;12.64;71.39
69171;BME280;56279;47.902;12.308;2023-04-23T05:55:40;94868.25;;;12.62;71.34
69171;BME280;56279;47.902;12.308;2023-04-23T05:57:41;94874.63;;;12.61;71.34
69171;BME280;56279;47.902;12.308;2023-04-23T05:59:42;94876.59;;;12.56;71.58
69171;BME280;56279;47.902;12.308;2023-04-23T06:01:43;94875.34;;;12.53;71.52
69171;BME280;56279;47.902;12.308;2023-04-23T06:03:45;94882.00;;;12.51;71.57
69171;BME280;56279;47.902;12.308;2023-04-23T06:05:47;94886.03;;;12.48;71.56
69171;BME280;56279;47.902;12.308;2023-04-23T06:07:48;94891.63;;;12.46;71.58
69171;BME280;56279;47.902;12.308;2023-04-23T06:09:49;94891.13;;;12.44;71.60
69171;BME280;56279;47.902;12.308;2023-04-23T06:11:51;94896.72;;;12.43;71.59
69171;BME280;56279;47.902;12.308;2023-04-23T06:13:53;94894.09;;;12.43;71.83
69171;BME280;56279;47.902;12.308;2023-04-23T06:15:57;94899.97;;;12.40;71.94
69171;BME280;56279;47.902;12.308;2023-04-23T06:17:58;94901.34;;;12.37;72.32
69171;BME280;56279;47.902;12.308;2023-04-23T06:19:59;94909.38;;;12.32;72.67
69171;BME280;56279;47.902;12.308;2023-04-23T06:22:06;94913.81;;;12.23;73.31
69171;BME280;56279;47.902;12.308;2023-04-23T06:24:08;94914.22;;;12.17;73.91
69171;BME280;56279;47.902;12.308;2023-04-23T06:26:09;94913.53;;;12.11;74.13
69171;BME280;56279;47.902;12.308;2023-04-23T06:28:10;94916.47;;;12.10;74.83
69171;BME280;56279;47.902;12.308;2023-04-23T06:30:25;94922.25;;;12.12;74.84
69171;BME280;56279;47.902;12.308;2023-04-23T06:32:27;94925.59;;;12.17;74.72
69171;BME280;56279;47.902;12.308;2023-04-23T06:34:28;94922.84;;;12.22;74.46
69171;BME280;56279;47.902;12.308;2023-04-23T06:36:29;94928.53;;;12.29;74.59
69171;BME280;56279;47.902;12.308;2023-04-23T06:38:30;94919.22;;;12.32;74.21
69171;BME280;56279;47.902;12.308;2023-04-23T06:40:32;94922.81;;;12.36;74.05
69171;BME280;56279;47.902;12.308;2023-04-23T06:42:33;94927.53;;;12.39;74.04
69171;BME280;56279;47.902;12.308;2023-04-23T06:44:57;94931.13;;;12.43;74.33
69171;BME280;56279;47.902;12.308;2023-04-23T06:47:04;94926.50;;;12.48;74.03
69171;BME280;56279;47.902;12.308;2023-04-23T06:49:05;94924.22;;;12.56;74.08
69171;BME280;56279;47.902;12.308;2023-04-23T06:51:07;94929.91;;;12.63;73.78
69171;BME280;56279;47.902;12.308;2023-04-23T06:53:08;94930.88;;;12.67;73.92
69171;BME280;56279;47.902;12.308;2023-04-23T06:55:10;94928.31;;;12.75;73.69
69171;BME280;56279;47.902;12.308;2023-04-23T06:57:11;94925.13;;;12.87;73.50
69171;BME280;56279;47.902;12.308;2023-04-23T06:59:13;94931.56;;;12.94;73.31
69171;BME280;56279;47.902;12.308;2023-04-23T07:01:20;94933.19;;;13.04;73.24
69171;BME280;56279;47.902;12.308;2023-04-23T07:03:21;94925.66;;;13.11;73.12
69171;BME280;56279;47.902;12.308;2023-04-23T07:05:22;94924.44;;;13.17;72.53
69171;BME280;56279;47.902;12.308;2023-04-23T07:07:24;94920.28;;;13.25;72.45
69171;BME280;56279;47.902;12.308;2023-04-23T07:09:27;94922.50;;;13.31;72.61
69171;BME280;56279;47.902;12.308;2023-04-23T07:11:28;94917.22;;;13.40;72.25
69171;BME280;56279;47.902;12.308;2023-04-23T07:13:31;94920.53;;;13.45;72.14
69171;BME280;56279;47.902;12.308;2023-04-23T07:15:32;94929.91;;;13.51;71.83
69171;BME280;56279;47.902;12.308;2023-04-23T07:17:34;94923.88;;;13.59;72.00
69171;BME280;56279;47.902;12.308;2023-04-23T07:19:36;94924.91;;;13.72;71.83
69171;BME280;56279;47.902;12.308;2023-04-23T07:21:37;94922.28;;;13.80;71.67
69171;BME280;56279;47.902;12.308;2023-04-23T07:23:39;94918.09;;;13.88;71.89
69171;BME280;56279;47.902;12.308;2023-04-23T07:25:40;94919.50;;;13.94;72.12
69171;BME280;56279;47.902;12.308;2023-04-23T07:27:42;94915.63;;;14.00;71.81
69171;BME280;56279;47.902;12.308;2023-04-23T07:29:43;94920.19;;;14.08;71.67
69171;BME280;56279;47.902;12.308;2023-04-23T07:31:44;94920.19;;;14.17;71.42
69171;BME280;56279;47.902;12.308;2023-04-23T07:33:46;94914.91;;;14.25;71.44
69171;BME280;56279;47.902;12.308;2023-04-23T07:35:47;94920.28;;;14.34;71.52
69171;BME280;56279;47.902;12.308;2023-04-23T07:37:49;94917.78;;;14.46;71.36
69171;BME280;56279;47.902;12.308;2023-04-23T07:39:53;94918.44;;;14.51;71.43
69171;BME280;56279;47.902;12.308;2023-04-23T07:41:54;94917.78;;;14.46;71.40
69171;BME280;56279;47.902;12.308;2023-04-23T07:43:59;94906.38;;;14.45;71.56
69171;BME280;56279;47.902;12.308;2023-04-23T07:46:00;94918.72;;;14.41;72.01
69171;BME280;56279;47.902;12.308;2023-04-23T07:48:03;94917.47;;;14.39;71.96
69171;BME280;56279;47.902;12.308;2023-04-23T07:50:06;94911.84;;;14.40;72.18
69171;BME280;56279;47.902;12.308;2023-04-23T07:52:07;94917.63;;;14.42;72.31
69171;BME280;56279;47.902;12.308;2023-04-23T07:54:10;94920.13;;;14.39;72.35
69171;BME280;56279;47.902;12.308;2023-04-23T07:56:11;94916.53;;;14.35;72.40
69171;BME280;56279;47.902;12.308;2023-04-23T07:58:12;94924.16;;;14.28;72.84
69171;BME280;56279;47.902;12.308;2023-04-23T08:00:14;94920.13;;;14.30;72.91
69171;BME280;56279;47.902;12.308;2023-04-23T08:02:15;94918.41;;;14.34;73.31
69171;BME280;56279;47.902;12.308;2023-04-23T08:04:19;94916.38;;;14.40;73.17
69171;BME280;56279;47.902;12.308;2023-04-23T08:06:21;94916.53;;;14.43;73.28
69171;BME280;56279;47.902;12.308;2023-04-23T08:08:23;94915.75;;;14.43;73.20
69171;BME280;56279;47.902;12.308;2023-04-23T08:10:24;94917.63;;;14.42;73.32
69171;BME280;56279;47.902;12.308;2023-04-23T08:12:26;94913.56;;;14.36;73.51
69171;BME280;56279;47.902;12.308;2023-04-23T08:14:27;94917.63;;;14.34;73.77
69171;BME280;56279;47.902;12.308;2023-04-23T08:16:28;94913.38;;;14.33;73.82
69171;BME280;56279;47.902;12.308;2023-04-23T08:18:29;94914.50;;;14.32;74.15
69171;BME280;56279;47.902;12.308;2023-04-23T08:20:31;94915.84;;;14.29;74.38
69171;BME280;56279;47.902;12.308;2023-04-23T08:22:32;94913.66;;;14.23;74.24
69171;BME280;56279;47.902;12.308;2023-04-23T08:24:33;94905.50;;;14.11;74.89
69171;BME280;56279;47.902;12.308;2023-04-23T08:26:35;94896.16;;;14.05;75.04
69171;BME280;56279;47.902;12.308;2023-04-23T08:28:36;94893.78;;;14.03;75.32
69171;BME280;56279;47.902;12.308;2023-04-23T08:30:38;94899.09;;;14.03;75.23
69171;BME280;56279;47.902;12.308;2023-04-23T08:32:39;94893.31;;;14.01;75.58
69171;BME280;56279;47.902;12.308;2023-04-23T08:34:43;94892.66;;;13.96;75.89
69171;BME280;56279;47.902;12.308;2023-04-23T08:36:46;94897.22;;;13.95;76.09
69171;BME280;56279;47.902;12.308;2023-04-23T08:38:48;94899.09;;;14.03;75.79
69171;BME280;56279;47.902;12.308;2023-04-23T08:40:55;94896.47;;;14.12;75.56
69171;BME280;56279;47.902;12.308;2023-04-23T08:43:00;94909.28;;;14.18;75.35
69171;BME280;56279;47.902;12.308;2023-04-23T08:45:03;94907.09;;;14.20;75.37
69171;BME280;56279;47.902;12.308;2023-04-23T08:47:06;94914.44;;;14.23;75.27
69171;BME280;56279;47.902;12.308;2023-04-23T08:49:16;94912.41;;;14.29;75.20
69171;BME280;56279;47.902;12.308;2023-04-23T08:51:20;94913.25;;;14.38;75.02
69171;BME280;56279;47.902;12.308;2023-04-23T08:53:24;94911.22;;;14.43;74.83
69171;BME280;56279;47.902;12.308;2023-04-23T08:55:28;94902.00;;;14.49;74.57
69171;BME280;56279;47.902;12.308;2023-04-23T08:57:31;94910.63;;;14.55;74.52
69171;BME280;56279;47.902;12.308;2023-04-23T08:59:35;94909.34;;;14.61;74.38
69171;BME280;56279;47.902;12.308;2023-04-23T09:01:37;94912.19;;;14.65;74.48
69171;BME280;56279;47.902;12.308;2023-04-23T09:03:39;94912.34;;;14.68;74.12
69171;BME280;56279;47.902;12.308;2023-04-23T09:05:41;94905.00;;;14.65;74.48
69171;BME280;56279;47.902;12.308;2023-04-23T09:07:42;94909.06;;;14.71;74.29
69171;BME280;56279;47.902;12.308;2023-04-23T09:09:43;94907.50;;;14.87;74.05
69171;BME280;56279;47.902;12.308;2023-04-23T09:11:45;94907.50;;;15.04;73.60
69171;BME280;56279;47.902;12.308;2023-04-23T09:13:46;94904.81;;;15.21;72.82
69171;BME280;56279;47.902;12.308;2023-04-23T09:15:47;94901.81;;;15.32;72.38
69171;BME280;56279;47.902;12.308;2023-04-23T09:17:51;94892.09;;;15.36;72.73
69171;BME280;56279;47.902;12.308;2023-04-23T09:19:53;94899.00;;;15.37;72.78
69171;BME280;56279;47.902;12.308;2023-04-23T09:21:57;94893.50;;;15.50;72.44
69171;BME280;56279;47.902;12.308;2023-04-23T09:24:04;94893.03;;;15.48;72.44
69171;BME280;56279;47.902;12.308;2023-04-23T09:26:06;94891.75;;;15.54;72.22
69171;BME280;56279;47.902;12.308;2023-04-23T09:28:08;94888.63;;;15.61;71.63
69171;BME280;56279;47.902;12.308;2023-04-23T09:30:11;94884.22;;;15.65;71.50
69171;BME280;56279;47.902;12.308;2023-04-23T09:32:12;94878.75;;;15.70;71.15
69171;BME280;56279;47.902;12.308;2023-04-23T09:34:24;94872.47;;;15.74;71.22
69171;BME280;56279;47.902;12.308;2023-04-23T09:36:25;94861.50;;;15.76;70.84
69171;BME280;56279;47.902;12.308;2023-04-23T09:38:28;94865.53;;;15.82;70.79
69171;BME280;56279;47.902;12.308;2023-04-23T09:40:29;94859.84;;;15.92;70.64
69171;BME280;56279;47.902;12.308;2023-04-23T09:42:31;94864.25;;;16.17;69.92
69171;BME280;56279;47.902;12.308;2023-04-23T09:44:33;94858.75;;;16.43;69.29
69171;BME280;56279;47.902;12.308;2023-04-23T09:46:41;94858.78;;;16.64;68.62
69171;BME280;56279;47.902;12.308;2023-04-23T09:48:43;94859.34;;;16.69;68.18
69171;BME280;56279;47.902;12.308;2023-04-23T09:50:44;94856.84;;;16.73;68.03
69171;BME280;56279;47.902;12.308;2023-04-23T09:52:53;94860.34;;;16.65;67.38
69171;BME280;56279;47.902;12.308;2023-04-23T09:54:59;94858.34;;;16.62;67.70
69171;BME280;56279;47.902;12.308;2023-04-23T09:57:01;94850.28;;;16.70;67.22
69171;BME280;56279;47.902;12.308;2023-04-23T09:59:26;94843.88;;;16.83;66.92
69171;BME280;56279;47.902;12.308;2023-04-23T10:01:28;94849.34;;;16.87;66.72
69171;BME280;56279;47.902;12.308;2023-04-23T10:03:30;94842.34;;;16.94;66.42
69171;BME280;56279;47.902;12.308;2023-04-23T10:05:31;94843.56;;;17.17;66.13
69171;BME280;56279;47.902;12.308;2023-04-23T10:07:33;94839.91;;;17.22;65.70
69171;BME280;56279;47.902;12.308;2023-04-23T10:09:34;94836.31;;;17.18;66.06
69171;BME280;56279;47.902;12.308;2023-04-23T10:11:36;94833.34;;;17.19;66.16
69171;BME280;56279;47.902;12.308;2023-04-23T10:13:38;94828.69;;;17.28;65.81
69171;BME280;56279;47.902;12.308;2023-04-23T10:15:40;94829.91;;;17.19;65.48
69171;BME280;56279;47.902;12.308;2023-04-23T10:17:41;94826.84;;;17.08;65.83
69171;BME280;56279;47.902;12.308;2023-04-23T10:19:43;94825.75;;;17.09;65.89
69171;BME280;56279;47.902;12.308;2023-04-23T10:21:45;94820.66;;;17.16;66.01
69171;BME280;56279;47.902;12.308;2023-04-23T10:23:50;94822.09;;;17.14;65.43
69171;BME280;56279;47.902;12.308;2023-04-23T10:25:52;94810.09;;;17.08;65.68
69171;BME280;56279;47.902;12.308;2023-04-23T10:27:56;94811.19;;;17.07;65.71
69171;BME280;56279;47.902;12.308;2023-04-23T10:29:59;94817.19;;;17.04;65.67
69171;BME280;56279;47.902;12.308;2023-04-23T10:32:02;94803.84;;;16.92;65.97
69171;BME280;56279;47.902;12.308;2023-04-23T10:34:04;94811.91;;;16.83;66.29
69171;BME280;56279;47.902;12.308;2023-04-23T10:36:06;94808.34;;;16.79;66.39
69171;BME280;56279;47.902;12.308;2023-04-23T10:38:07;94807.28;;;16.72;66.81
69171;BME280;56279;47.902;12.308;2023-04-23T10:40:14;94809.25;;;16.63;66.95